sensor_id;sensor_type;location;lat;lon;timestamp;temperature;humidity
13086;DHT22;6609;49.882;8.664;2024-01-16T00:00:13;1.60;76.80
13086;DHT22;6609;49.882;8.664;2024-01-16T00:02:39;1.60;76.90
13086;DHT22;6609;49.882;8.664;2024-01-16T00:05:08;1.60;76.80
13086;DHT22;6609;49.882;8.664;2024-01-16T00:07:36;1.50;76.80
13086;DHT22;6609;49.882;8.664;2024-01-16T00:10:02;1.50;76.90
13086;DHT22;6609;49.882;8.664;2024-01-16T00:12:29;1.50;76.90
13086;DHT22;6609;49.882;8.664;2024-01-16T00:14:55;1.50;77.00
13086;DHT22;6609;49.882;8.664;2024-01-16T00:17:22;1.60;76.90
13086;DHT22;6609;49.882;8.664;2024-01-16T00:19:49;1.50;76.80
13086;DHT22;6609;49.882;8.664;2024-01-16T00:22:17;1.50;77.20
13086;DHT22;6609;49.882;8.664;2024-01-16T00:24:43;1.50;77.20
13086;DHT22;6609;49.882;8.664;2024-01-16T00:27:10;1.60;77.20
13086;DHT22;6609;49.882;8.664;2024-01-16T00:29:37;1.70;77.40
13086;DHT22;6609;49.882;8.664;2024-01-16T00:32:04;1.40;77.30
13086;DHT22;6609;49.882;8.664;2024-01-16T00:34:31;1.40;77.30
13086;DHT22;6609;49.882;8.664;2024-01-16T00:36:57;1.40;77.50
13086;DHT22;6609;49.882;8.664;2024-01-16T00:39:25;1.40;77.50
13086;DHT22;6609;49.882;8.664;2024-01-16T00:41:52;1.40;77.50
13086;DHT22;6609;49.882;8.664;2024-01-16T00:44:18;1.40;77.10
13086;DHT22;6609;49.882;8.664;2024-01-16T00:46:45;1.40;77.80
13086;DHT22;6609;49.882;8.664;2024-01-16T00:49:11;1.40;77.70
13086;DHT22;6609;49.882;8.664;2024-01-16T00:51:38;1.40;77.70
13086;DHT22;6609;49.882;8.664;2024-01-16T00:54:04;1.40;77.80
13086;DHT22;6609;49.882;8.664;2024-01-16T00:56:34;1.40;77.80
13086;DHT22;6609;49.882;8.664;2024-01-16T00:59:01;1.50;77.90
13086;DHT22;6609;49.882;8.664;2024-01-16T01:01:27;1.50;78.00
13086;DHT22;6609;49.882;8.664;2024-01-16T01:03:54;1.40;77.90
13086;DHT22;6609;49.882;8.664;2024-01-16T01:06:21;1.40;78.10
13086;DHT22;6609;49.882;8.664;2024-01-16T01:08:48;1.40;78.20
13086;DHT22;6609;49.882;8.664;2024-01-16T01:11:14;1.40;78.30
13086;DHT22;6609;49.882;8.664;2024-01-16T01:13:42;1.40;78.20
13086;DHT22;6609;49.882;8.664;2024-01-16T01:16:09;1.40;78.20
13086;DHT22;6609;49.882;8.664;2024-01-16T01:18:35;1.40;78.10
13086;DHT22;6609;49.882;8.664;2024-01-16T01:21:02;1.40;78.00
13086;DHT22;6609;49.882;8.664;2024-01-16T01:23:29;1.40;78.10
13086;DHT22;6609;49.882;8.664;2024-01-16T01:25:56;1.30;78.00
13086;DHT22;6609;49.882;8.664;2024-01-16T01:28:22;1.30;78.10
13086;DHT22;6609;49.882;8.664;2024-01-16T01:30:50;1.30;78.00
13086;DHT22;6609;49.882;8.664;2024-01-16T01:33:17;1.20;78.20
13086;DHT22;6609;49.882;8.664;2024-01-16T01:35:43;1.50;78.40
13086;DHT22;6609;49.882;8.664;2024-01-16T01:38:10;1.20;78.00
13086;DHT22;6609;49.882;8.664;2024-01-16T01:40:36;1.20;79.00
13086;DHT22;6609;49.882;8.664;2024-01-16T01:43:16;1.20;78.30
13086;DHT22;6609;49.882;8.664;2024-01-16T01:45:43;1.20;78.40
13086;DHT22;6609;49.882;8.664;2024-01-16T01:48:11;1.20;78.40
13086;DHT22;6609;49.882;8.664;2024-01-16T01:50:38;1.20;78.10
13086;DHT22;6609;49.882;8.664;2024-01-16T01:53:04;1.20;78.20
13086;DHT22;6609;49.882;8.664;2024-01-16T01:55:31;1.20;78.30
13086;DHT22;6609;49.882;8.664;2024-01-16T01:57:58;1.20;78.30
13086;DHT22;6609;49.882;8.664;2024-01-16T02:00:25;1.20;78.30
13086;DHT22;6609;49.882;8.664;2024-01-16T02:02:52;1.20;78.20
13086;DHT22;6609;49.882;8.664;2024-01-16T02:05:19;1.20;77.80
13086;DHT22;6609;49.882;8.664;2024-01-16T02:07:46;1.20;78.30
13086;DHT22;6609;49.882;8.664;2024-01-16T02:10:13;1.30;78.40
13086;DHT22;6609;49.882;8.664;2024-01-16T02:12:40;1.20;78.40
13086;DHT22;6609;49.882;8.664;2024-01-16T02:15:06;1.20;78.40
13086;DHT22;6609;49.882;8.664;2024-01-16T02:17:33;1.20;78.50
13086;DHT22;6609;49.882;8.664;2024-01-16T02:20:00;1.20;78.60
13086;DHT22;6609;49.882;8.664;2024-01-16T02:22:28;1.40;78.80
13086;DHT22;6609;49.882;8.664;2024-01-16T02:25:00;1.30;78.60
13086;DHT22;6609;49.882;8.664;2024-01-16T02:27:26;1.30;78.70
13086;DHT22;6609;49.882;8.664;2024-01-16T02:29:53;1.30;78.00
13086;DHT22;6609;49.882;8.664;2024-01-16T02:32:19;1.30;78.60
13086;DHT22;6609;49.882;8.664;2024-01-16T02:34:46;1.30;78.60
13086;DHT22;6609;49.882;8.664;2024-01-16T02:37:12;1.30;78.40
13086;DHT22;6609;49.882;8.664;2024-01-16T02:39:39;1.30;78.60
13086;DHT22;6609;49.882;8.664;2024-01-16T02:42:07;1.30;78.60
13086;DHT22;6609;49.882;8.664;2024-01-16T02:44:33;1.30;78.70
13086;DHT22;6609;49.882;8.664;2024-01-16T02:47:00;1.30;78.70
13086;DHT22;6609;49.882;8.664;2024-01-16T02:49:26;1.30;78.70
13086;DHT22;6609;49.882;8.664;2024-01-16T02:51:53;1.30;78.70
13086;DHT22;6609;49.882;8.664;2024-01-16T02:54:20;1.30;78.60
13086;DHT22;6609;49.882;8.664;2024-01-16T02:56:46;1.30;78.60
13086;DHT22;6609;49.882;8.664;2024-01-16T02:59:14;1.20;78.50
13086;DHT22;6609;49.882;8.664;2024-01-16T03:01:41;1.30;78.60
13086;DHT22;6609;49.882;8.664;2024-01-16T03:04:08;1.20;77.90
13086;DHT22;6609;49.882;8.664;2024-01-16T03:06:34;1.10;78.00
13086;DHT22;6609;49.882;8.664;2024-01-16T03:09:01;1.10;78.10
13086;DHT22;6609;49.882;8.664;2024-01-16T03:11:27;1.10;78.80
13086;DHT22;6609;49.882;8.664;2024-01-16T03:13:54;1.20;78.90
13086;DHT22;6609;49.882;8.664;2024-01-16T03:16:22;1.20;78.40
13086;DHT22;6609;49.882;8.664;2024-01-16T03:18:49;1.20;79.00
13086;DHT22;6609;49.882;8.664;2024-01-16T03:21:15;1.20;79.00
13086;DHT22;6609;49.882;8.664;2024-01-16T03:23:42;1.20;78.70
13086;DHT22;6609;49.882;8.664;2024-01-16T03:26:11;1.20;78.20
13086;DHT22;6609;49.882;8.664;2024-01-16T03:28:38;1.20;78.70
13086;DHT22;6609;49.882;8.664;2024-01-16T03:31:05;1.30;78.60
13086;DHT22;6609;49.882;8.664;2024-01-16T03:33:33;1.20;78.10
13086;DHT22;6609;49.882;8.664;2024-01-16T03:36:01;1.20;78.10
13086;DHT22;6609;49.882;8.664;2024-01-16T03:38:28;1.20;78.10
13086;DHT22;6609;49.882;8.664;2024-01-16T03:40:54;1.30;78.40
13086;DHT22;6609;49.882;8.664;2024-01-16T03:43:21;1.20;78.20
13086;DHT22;6609;49.882;8.664;2024-01-16T03:45:47;1.20;78.20
13086;DHT22;6609;49.882;8.664;2024-01-16T03:48:14;3.40;80.60
13086;DHT22;6609;49.882;8.664;2024-01-16T03:50:42;1.30;78.80
13086;DHT22;6609;49.882;8.664;2024-01-16T03:53:09;1.20;78.90
13086;DHT22;6609;49.882;8.664;2024-01-16T03:55:35;1.20;78.40
13086;DHT22;6609;49.882;8.664;2024-01-16T03:58:02;1.30;78.50
13086;DHT22;6609;49.882;8.664;2024-01-16T04:00:29;1.30;78.50
13086;DHT22;6609;49.882;8.664;2024-01-16T04:02:55;1.30;78.60
13086;DHT22;6609;49.882;8.664;2024-01-16T04:05:22;1.40;78.90
13086;DHT22;6609;49.882;8.664;2024-01-16T04:07:49;1.40;79.20
13086;DHT22;6609;49.882;8.664;2024-01-16T04:10:17;1.40;79.10
13086;DHT22;6609;49.882;8.664;2024-01-16T04:12:44;1.40;79.00
13086;DHT22;6609;49.882;8.664;2024-01-16T04:15:10;1.30;79.10
13086;DHT22;6609;49.882;8.664;2024-01-16T04:17:37;1.40;78.70
13086;DHT22;6609;49.882;8.664;2024-01-16T04:20:04;1.40;79.00
13086;DHT22;6609;49.882;8.664;2024-01-16T04:22:32;1.30;78.90
13086;DHT22;6609;49.882;8.664;2024-01-16T04:25:00;1.30;79.20
13086;DHT22;6609;49.882;8.664;2024-01-16T04:27:26;1.20;79.40
13086;DHT22;6609;49.882;8.664;2024-01-16T04:29:53;1.20;79.40
13086;DHT22;6609;49.882;8.664;2024-01-16T04:32:19;1.20;79.40
13086;DHT22;6609;49.882;8.664;2024-01-16T04:34:46;1.10;78.70
13086;DHT22;6609;49.882;8.664;2024-01-16T04:37:12;1.20;79.40
13086;DHT22;6609;49.882;8.664;2024-01-16T04:39:39;1.30;79.40
13086;DHT22;6609;49.882;8.664;2024-01-16T04:42:07;1.20;79.30
13086;DHT22;6609;49.882;8.664;2024-01-16T04:44:33;1.20;79.40
13086;DHT22;6609;49.882;8.664;2024-01-16T04:47:00;1.20;79.40
13086;DHT22;6609;49.882;8.664;2024-01-16T04:49:27;1.20;78.70
13086;DHT22;6609;49.882;8.664;2024-01-16T04:51:53;1.20;79.10
13086;DHT22;6609;49.882;8.664;2024-01-16T04:54:20;1.20;79.40
13086;DHT22;6609;49.882;8.664;2024-01-16T04:56:46;1.20;79.40
13086;DHT22;6609;49.882;8.664;2024-01-16T04:59:14;1.10;79.30
13086;DHT22;6609;49.882;8.664;2024-01-16T05:01:41;1.20;79.40
13086;DHT22;6609;49.882;8.664;2024-01-16T05:04:08;1.10;79.30
13086;DHT22;6609;49.882;8.664;2024-01-16T05:06:35;1.20;79.40
13086;DHT22;6609;49.882;8.664;2024-01-16T05:09:02;1.20;79.40
13086;DHT22;6609;49.882;8.664;2024-01-16T05:11:28;1.20;79.40
13086;DHT22;6609;49.882;8.664;2024-01-16T05:13:55;1.20;79.40
13086;DHT22;6609;49.882;8.664;2024-01-16T05:16:24;1.20;79.20
13086;DHT22;6609;49.882;8.664;2024-01-16T05:18:51;1.20;79.40
13086;DHT22;6609;49.882;8.664;2024-01-16T05:21:17;1.20;78.70
13086;DHT22;6609;49.882;8.664;2024-01-16T05:23:44;1.20;79.30
13086;DHT22;6609;49.882;8.664;2024-01-16T05:26:10;1.10;78.70
13086;DHT22;6609;49.882;8.664;2024-01-16T05:28:38;1.20;79.40
13086;DHT22;6609;49.882;8.664;2024-01-16T05:31:05;1.20;79.40
13086;DHT22;6609;49.882;8.664;2024-01-16T05:33:34;1.10;79.30
13086;DHT22;6609;49.882;8.664;2024-01-16T05:36:00;1.10;80.00
13086;DHT22;6609;49.882;8.664;2024-01-16T05:38:27;1.20;79.40
13086;DHT22;6609;49.882;8.664;2024-01-16T05:40:54;1.10;78.70
13086;DHT22;6609;49.882;8.664;2024-01-16T05:43:20;1.50;79.70
13086;DHT22;6609;49.882;8.664;2024-01-16T05:45:47;1.20;79.40
13086;DHT22;6609;49.882;8.664;2024-01-16T05:48:13;1.20;79.40
13086;DHT22;6609;49.882;8.664;2024-01-16T05:50:41;1.20;79.40
13086;DHT22;6609;49.882;8.664;2024-01-16T05:53:08;1.20;79.40
13086;DHT22;6609;49.882;8.664;2024-01-16T05:55:35;1.20;79.30
13086;DHT22;6609;49.882;8.664;2024-01-16T05:58:02;1.20;79.40
13086;DHT22;6609;49.882;8.664;2024-01-16T06:00:29;1.20;79.40
13086;DHT22;6609;49.882;8.664;2024-01-16T06:02:55;1.40;79.20
13086;DHT22;6609;49.882;8.664;2024-01-16T06:05:22;1.30;78.50
13086;DHT22;6609;49.882;8.664;2024-01-16T06:07:50;1.40;79.00
13086;DHT22;6609;49.882;8.664;2024-01-16T06:10:16;1.30;78.70
13086;DHT22;6609;49.882;8.664;2024-01-16T06:12:43;1.30;78.50
13086;DHT22;6609;49.882;8.664;2024-01-16T06:15:09;1.30;78.40
13086;DHT22;6609;49.882;8.664;2024-01-16T06:17:38;1.30;77.80
13086;DHT22;6609;49.882;8.664;2024-01-16T06:20:05;1.30;78.50
13086;DHT22;6609;49.882;8.664;2024-01-16T06:22:32;1.20;78.30
13086;DHT22;6609;49.882;8.664;2024-01-16T06:25:00;1.20;78.30
13086;DHT22;6609;49.882;8.664;2024-01-16T06:27:27;1.20;77.80
13086;DHT22;6609;49.882;8.664;2024-01-16T06:29:54;1.20;78.40
13086;DHT22;6609;49.882;8.664;2024-01-16T06:32:20;1.20;78.10
13086;DHT22;6609;49.882;8.664;2024-01-16T06:34:47;1.20;78.10
13086;DHT22;6609;49.882;8.664;2024-01-16T06:37:13;1.20;78.10
13086;DHT22;6609;49.882;8.664;2024-01-16T06:39:40;1.10;78.30
13086;DHT22;6609;49.882;8.664;2024-01-16T06:42:08;1.10;78.20
13086;DHT22;6609;49.882;8.664;2024-01-16T06:44:34;1.10;78.30
13086;DHT22;6609;49.882;8.664;2024-01-16T06:47:01;1.20;78.30
13086;DHT22;6609;49.882;8.664;2024-01-16T06:49:27;1.00;78.30
13086;DHT22;6609;49.882;8.664;2024-01-16T06:51:54;1.00;78.10
13086;DHT22;6609;49.882;8.664;2024-01-16T06:54:22;1.00;78.20
13086;DHT22;6609;49.882;8.664;2024-01-16T06:56:49;1.00;77.80
13086;DHT22;6609;49.882;8.664;2024-01-16T06:59:17;0.90;77.60
13086;DHT22;6609;49.882;8.664;2024-01-16T07:01:47;1.00;78.10
13086;DHT22;6609;49.882;8.664;2024-01-16T07:04:13;0.80;78.10
13086;DHT22;6609;49.882;8.664;2024-01-16T07:06:40;0.80;78.40
13086;DHT22;6609;49.882;8.664;2024-01-16T07:09:06;0.80;78.10
13086;DHT22;6609;49.882;8.664;2024-01-16T07:11:36;0.90;78.30
13086;DHT22;6609;49.882;8.664;2024-01-16T07:14:02;0.90;78.20
13086;DHT22;6609;49.882;8.664;2024-01-16T07:16:30;1.00;78.10
13086;DHT22;6609;49.882;8.664;2024-01-16T07:18:57;0.90;78.10
13086;DHT22;6609;49.882;8.664;2024-01-16T07:21:23;0.90;77.60
13086;DHT22;6609;49.882;8.664;2024-01-16T07:23:50;1.00;78.40
13086;DHT22;6609;49.882;8.664;2024-01-16T07:26:16;1.00;78.40
13086;DHT22;6609;49.882;8.664;2024-01-16T07:28:43;1.00;78.10
13086;DHT22;6609;49.882;8.664;2024-01-16T07:31:09;1.00;78.30
13086;DHT22;6609;49.882;8.664;2024-01-16T07:33:38;1.00;78.10
13086;DHT22;6609;49.882;8.664;2024-01-16T07:36:05;1.00;77.90
13086;DHT22;6609;49.882;8.664;2024-01-16T07:38:32;1.00;78.00
13086;DHT22;6609;49.882;8.664;2024-01-16T07:40:59;1.10;78.10
13086;DHT22;6609;49.882;8.664;2024-01-16T07:43:25;1.00;78.10
13086;DHT22;6609;49.882;8.664;2024-01-16T07:45:52;1.00;78.10
13086;DHT22;6609;49.882;8.664;2024-01-16T07:48:18;1.00;78.10
13086;DHT22;6609;49.882;8.664;2024-01-16T07:50:46;0.70;77.70
13086;DHT22;6609;49.882;8.664;2024-01-16T07:53:13;1.00;78.00
13086;DHT22;6609;49.882;8.664;2024-01-16T07:55:40;1.10;77.80
13086;DHT22;6609;49.882;8.664;2024-01-16T07:58:07;1.10;77.80
13086;DHT22;6609;49.882;8.664;2024-01-16T08:00:33;1.20;77.30
13086;DHT22;6609;49.882;8.664;2024-01-16T08:03:00;1.20;77.70
13086;DHT22;6609;49.882;8.664;2024-01-16T08:05:26;1.20;77.00
13086;DHT22;6609;49.882;8.664;2024-01-16T08:07:56;1.30;77.60
13086;DHT22;6609;49.882;8.664;2024-01-16T08:10:23;1.30;77.50
13086;DHT22;6609;49.882;8.664;2024-01-16T08:12:50;1.30;77.50
13086;DHT22;6609;49.882;8.664;2024-01-16T08:15:16;1.30;76.80
13086;DHT22;6609;49.882;8.664;2024-01-16T08:17:43;1.30;77.20
13086;DHT22;6609;49.882;8.664;2024-01-16T08:20:10;1.30;77.10
13086;DHT22;6609;49.882;8.664;2024-01-16T08:22:36;1.40;77.00
13086;DHT22;6609;49.882;8.664;2024-01-16T08:25:05;1.30;76.60
13086;DHT22;6609;49.882;8.664;2024-01-16T08:27:31;1.30;76.50
13086;DHT22;6609;49.882;8.664;2024-01-16T08:29:59;1.30;76.80
13086;DHT22;6609;49.882;8.664;2024-01-16T08:32:26;1.30;76.80
13086;DHT22;6609;49.882;8.664;2024-01-16T08:34:52;1.20;76.50
13086;DHT22;6609;49.882;8.664;2024-01-16T08:37:19;1.20;76.80
13086;DHT22;6609;49.882;8.664;2024-01-16T08:39:45;1.20;76.80
13086;DHT22;6609;49.882;8.664;2024-01-16T08:42:13;1.20;75.80
13086;DHT22;6609;49.882;8.664;2024-01-16T08:44:39;1.20;76.60
13086;DHT22;6609;49.882;8.664;2024-01-16T08:47:06;1.20;76.60
13086;DHT22;6609;49.882;8.664;2024-01-16T08:49:33;1.30;76.80
13086;DHT22;6609;49.882;8.664;2024-01-16T08:52:00;1.30;76.80
13086;DHT22;6609;49.882;8.664;2024-01-16T08:54:27;1.40;77.10
13086;DHT22;6609;49.882;8.664;2024-01-16T08:56:54;1.40;77.00
13086;DHT22;6609;49.882;8.664;2024-01-16T08:59:22;1.50;77.30
13086;DHT22;6609;49.882;8.664;2024-01-16T09:01:49;1.70;77.40
13086;DHT22;6609;49.882;8.664;2024-01-16T09:04:16;1.70;77.20
13086;DHT22;6609;49.882;8.664;2024-01-16T09:06:43;1.70;75.70
13086;DHT22;6609;49.882;8.664;2024-01-16T09:09:09;1.70;76.50
13086;DHT22;6609;49.882;8.664;2024-01-16T09:11:37;1.70;76.30
13086;DHT22;6609;49.882;8.664;2024-01-16T09:14:04;1.70;76.50
13086;DHT22;6609;49.882;8.664;2024-01-16T09:16:32;1.70;76.30
13086;DHT22;6609;49.882;8.664;2024-01-16T09:18:58;1.80;76.60
13086;DHT22;6609;49.882;8.664;2024-01-16T09:21:25;1.80;76.30
13086;DHT22;6609;49.882;8.664;2024-01-16T09:23:51;1.80;75.50
13086;DHT22;6609;49.882;8.664;2024-01-16T09:26:18;1.70;75.20
13086;DHT22;6609;49.882;8.664;2024-01-16T09:28:44;1.70;75.40
13086;DHT22;6609;49.882;8.664;2024-01-16T09:31:11;1.70;75.40
13086;DHT22;6609;49.882;8.664;2024-01-16T09:33:39;1.80;75.40
13086;DHT22;6609;49.882;8.664;2024-01-16T09:36:05;1.80;75.50
13086;DHT22;6609;49.882;8.664;2024-01-16T09:38:32;1.80;75.10
13086;DHT22;6609;49.882;8.664;2024-01-16T09:40:59;1.80;75.10
13086;DHT22;6609;49.882;8.664;2024-01-16T09:43:27;1.80;75.10
13086;DHT22;6609;49.882;8.664;2024-01-16T09:45:54;1.80;75.10
13086;DHT22;6609;49.882;8.664;2024-01-16T09:48:21;1.90;75.40
13086;DHT22;6609;49.882;8.664;2024-01-16T09:50:50;2.00;75.30
13086;DHT22;6609;49.882;8.664;2024-01-16T09:53:16;2.00;75.20
13086;DHT22;6609;49.882;8.664;2024-01-16T09:58:10;2.20;74.50
13086;DHT22;6609;49.882;8.664;2024-01-16T10:00:40;2.30;74.80
13086;DHT22;6609;49.882;8.664;2024-01-16T10:03:09;2.30;74.60
13086;DHT22;6609;49.882;8.664;2024-01-16T10:05:37;2.30;74.60
13086;DHT22;6609;49.882;8.664;2024-01-16T10:08:06;2.40;74.50
13086;DHT22;6609;49.882;8.664;2024-01-16T10:10:33;2.40;73.80
13086;DHT22;6609;49.882;8.664;2024-01-16T10:12:59;2.60;74.00
13086;DHT22;6609;49.882;8.664;2024-01-16T10:17:53;2.90;72.90
13086;DHT22;6609;49.882;8.664;2024-01-16T10:20:31;3.00;72.10
13086;DHT22;6609;49.882;8.664;2024-01-16T10:22:58;3.30;72.80
13086;DHT22;6609;49.882;8.664;2024-01-16T10:25:26;3.40;70.40
13086;DHT22;6609;49.882;8.664;2024-01-16T10:28:02;3.40;70.90
13086;DHT22;6609;49.882;8.664;2024-01-16T10:30:29;3.30;71.10
13086;DHT22;6609;49.882;8.664;2024-01-16T10:32:55;3.20;70.60
13086;DHT22;6609;49.882;8.664;2024-01-16T10:35:38;3.20;70.90
13086;DHT22;6609;49.882;8.664;2024-01-16T10:38:04;3.10;70.40
13086;DHT22;6609;49.882;8.664;2024-01-16T10:40:32;3.10;70.50
13086;DHT22;6609;49.882;8.664;2024-01-16T10:42:59;3.10;70.50
13086;DHT22;6609;49.882;8.664;2024-01-16T10:45:26;3.20;69.70
13086;DHT22;6609;49.882;8.664;2024-01-16T10:48:00;3.20;70.40
13086;DHT22;6609;49.882;8.664;2024-01-16T10:50:26;3.30;70.30
13086;DHT22;6609;49.882;8.664;2024-01-16T10:52:54;3.40;70.10
13086;DHT22;6609;49.882;8.664;2024-01-16T10:55:21;3.50;69.10
13086;DHT22;6609;49.882;8.664;2024-01-16T10:57:49;3.50;70.50
13086;DHT22;6609;49.882;8.664;2024-01-16T11:00:18;3.40;69.00
13086;DHT22;6609;49.882;8.664;2024-01-16T11:02:47;3.30;69.60
13086;DHT22;6609;49.882;8.664;2024-01-16T11:07:42;3.30;69.00
13086;DHT22;6609;49.882;8.664;2024-01-16T11:10:09;3.20;69.80
13086;DHT22;6609;49.882;8.664;2024-01-16T11:12:37;3.40;70.00
13086;DHT22;6609;49.882;8.664;2024-01-16T11:15:06;3.60;69.90
13086;DHT22;6609;49.882;8.664;2024-01-16T11:17:33;3.50;70.10
13086;DHT22;6609;49.882;8.664;2024-01-16T11:20:01;3.50;69.70
13086;DHT22;6609;49.882;8.664;2024-01-16T11:22:31;3.60;69.70
13086;DHT22;6609;49.882;8.664;2024-01-16T11:25:07;3.50;68.80
13086;DHT22;6609;49.882;8.664;2024-01-16T11:27:35;3.40;68.70
13086;DHT22;6609;49.882;8.664;2024-01-16T11:30:01;3.50;69.20
13086;DHT22;6609;49.882;8.664;2024-01-16T11:32:35;3.80;68.70
13086;DHT22;6609;49.882;8.664;2024-01-16T11:35:03;3.90;68.30
13086;DHT22;6609;49.882;8.664;2024-01-16T11:37:30;4.10;68.20
13086;DHT22;6609;49.882;8.664;2024-01-16T11:40:24;4.20;68.50
13086;DHT22;6609;49.882;8.664;2024-01-16T11:42:52;4.60;68.70
13086;DHT22;6609;49.882;8.664;2024-01-16T11:45:48;5.10;65.70
13086;DHT22;6609;49.882;8.664;2024-01-16T11:48:17;5.10;66.10
13086;DHT22;6609;49.882;8.664;2024-01-16T11:50:45;5.20;65.90
13086;DHT22;6609;49.882;8.664;2024-01-16T11:53:33;5.20;64.20
13086;DHT22;6609;49.882;8.664;2024-01-16T11:56:28;5.10;63.00
13086;DHT22;6609;49.882;8.664;2024-01-16T11:59:14;5.00;63.90
13086;DHT22;6609;49.882;8.664;2024-01-16T12:01:45;4.90;63.90
13086;DHT22;6609;49.882;8.664;2024-01-16T12:04:14;5.00;64.40
13086;DHT22;6609;49.882;8.664;2024-01-16T12:06:43;5.10;63.60
13086;DHT22;6609;49.882;8.664;2024-01-16T12:09:13;5.00;63.30
13086;DHT22;6609;49.882;8.664;2024-01-16T12:11:39;4.80;62.90
13086;DHT22;6609;49.882;8.664;2024-01-16T12:14:08;4.70;63.10
13086;DHT22;6609;49.882;8.664;2024-01-16T12:16:35;4.60;63.00
13086;DHT22;6609;49.882;8.664;2024-01-16T12:19:05;4.60;63.20
13086;DHT22;6609;49.882;8.664;2024-01-16T12:21:35;4.60;62.10
13086;DHT22;6609;49.882;8.664;2024-01-16T12:24:05;4.60;62.60
13086;DHT22;6609;49.882;8.664;2024-01-16T12:26:32;4.80;62.90
13086;DHT22;6609;49.882;8.664;2024-01-16T12:28:59;4.80;62.00
13086;DHT22;6609;49.882;8.664;2024-01-16T12:31:26;4.80;61.30
13086;DHT22;6609;49.882;8.664;2024-01-16T12:33:54;4.80;60.70
13086;DHT22;6609;49.882;8.664;2024-01-16T12:36:21;4.80;60.90
13086;DHT22;6609;49.882;8.664;2024-01-16T12:38:55;4.80;61.20
13086;DHT22;6609;49.882;8.664;2024-01-16T12:41:22;4.90;61.20
13086;DHT22;6609;49.882;8.664;2024-01-16T12:43:50;4.80;60.20
13086;DHT22;6609;49.882;8.664;2024-01-16T12:46:16;4.80;60.70
13086;DHT22;6609;49.882;8.664;2024-01-16T12:51:20;4.80;59.70
13086;DHT22;6609;49.882;8.664;2024-01-16T12:53:47;4.60;60.40
13086;DHT22;6609;49.882;8.664;2024-01-16T12:56:18;4.60;60.00
13086;DHT22;6609;49.882;8.664;2024-01-16T12:58:45;4.60;60.60
13086;DHT22;6609;49.882;8.664;2024-01-16T13:01:21;4.60;60.60
13086;DHT22;6609;49.882;8.664;2024-01-16T13:03:47;4.50;60.10
13086;DHT22;6609;49.882;8.664;2024-01-16T13:06:16;4.50;60.40
13086;DHT22;6609;49.882;8.664;2024-01-16T13:08:43;4.50;60.60
13086;DHT22;6609;49.882;8.664;2024-01-16T13:11:10;4.60;60.60
13086;DHT22;6609;49.882;8.664;2024-01-16T13:13:37;4.60;60.70
13086;DHT22;6609;49.882;8.664;2024-01-16T13:16:05;4.60;60.20
13086;DHT22;6609;49.882;8.664;2024-01-16T13:18:32;4.60;60.70
13086;DHT22;6609;49.882;8.664;2024-01-16T13:21:00;4.70;61.30
13086;DHT22;6609;49.882;8.664;2024-01-16T13:23:28;4.70;60.50
13086;DHT22;6609;49.882;8.664;2024-01-16T13:25:56;4.80;60.20
13086;DHT22;6609;49.882;8.664;2024-01-16T13:28:24;4.80;60.10
13086;DHT22;6609;49.882;8.664;2024-01-16T13:30:52;4.80;58.00
13086;DHT22;6609;49.882;8.664;2024-01-16T13:33:19;4.80;58.80
13086;DHT22;6609;49.882;8.664;2024-01-16T13:35:46;4.60;57.90
13086;DHT22;6609;49.882;8.664;2024-01-16T13:38:13;4.60;58.60
13086;DHT22;6609;49.882;8.664;2024-01-16T13:40:41;4.50;58.10
13086;DHT22;6609;49.882;8.664;2024-01-16T13:43:07;4.40;58.40
13086;DHT22;6609;49.882;8.664;2024-01-16T13:45:34;4.20;57.50
13086;DHT22;6609;49.882;8.664;2024-01-16T13:48:02;4.20;58.40
13086;DHT22;6609;49.882;8.664;2024-01-16T13:50:30;4.10;58.60
13086;DHT22;6609;49.882;8.664;2024-01-16T13:52:57;4.10;58.70
13086;DHT22;6609;49.882;8.664;2024-01-16T13:55:23;4.00;58.20
13086;DHT22;6609;49.882;8.664;2024-01-16T13:57:50;1.00;55.40
13086;DHT22;6609;49.882;8.664;2024-01-16T14:00:17;4.00;58.90
13086;DHT22;6609;49.882;8.664;2024-01-16T14:02:44;4.00;59.00
13086;DHT22;6609;49.882;8.664;2024-01-16T14:05:12;3.90;59.00
13086;DHT22;6609;49.882;8.664;2024-01-16T14:07:40;3.90;59.00
13086;DHT22;6609;49.882;8.664;2024-01-16T14:10:08;3.80;59.20
13086;DHT22;6609;49.882;8.664;2024-01-16T14:12:37;3.70;59.10
13086;DHT22;6609;49.882;8.664;2024-01-16T14:15:04;3.70;59.50
13086;DHT22;6609;49.882;8.664;2024-01-16T14:17:34;3.70;59.20
13086;DHT22;6609;49.882;8.664;2024-01-16T14:20:01;3.80;59.10
13086;DHT22;6609;49.882;8.664;2024-01-16T14:22:32;3.50;59.20
13086;DHT22;6609;49.882;8.664;2024-01-16T14:24:58;3.60;59.50
13086;DHT22;6609;49.882;8.664;2024-01-16T14:27:25;3.60;59.50
13086;DHT22;6609;49.882;8.664;2024-01-16T14:29:51;3.60;59.60
13086;DHT22;6609;49.882;8.664;2024-01-16T14:32:18;3.60;59.50
13086;DHT22;6609;49.882;8.664;2024-01-16T14:34:44;3.60;59.80
13086;DHT22;6609;49.882;8.664;2024-01-16T14:37:11;3.50;59.80
13086;DHT22;6609;49.882;8.664;2024-01-16T14:39:40;3.50;60.00
13086;DHT22;6609;49.882;8.664;2024-01-16T14:42:06;3.40;60.30
13086;DHT22;6609;49.882;8.664;2024-01-16T14:44:33;3.40;60.50
13086;DHT22;6609;49.882;8.664;2024-01-16T14:47:00;3.40;60.70
13086;DHT22;6609;49.882;8.664;2024-01-16T14:49:26;3.40;60.80
13086;DHT22;6609;49.882;8.664;2024-01-16T14:51:56;3.60;61.00
13086;DHT22;6609;49.882;8.664;2024-01-16T14:54:23;3.40;61.10
13086;DHT22;6609;49.882;8.664;2024-01-16T14:56:52;3.40;61.20
13086;DHT22;6609;49.882;8.664;2024-01-16T14:59:18;3.40;61.40
13086;DHT22;6609;49.882;8.664;2024-01-16T15:01:45;3.40;61.60
13086;DHT22;6609;49.882;8.664;2024-01-16T15:04:12;3.40;61.60
13086;DHT22;6609;49.882;8.664;2024-01-16T15:06:38;3.40;61.70
13086;DHT22;6609;49.882;8.664;2024-01-16T15:09:05;3.40;61.70
13086;DHT22;6609;49.882;8.664;2024-01-16T15:11:35;5.20;63.30
13086;DHT22;6609;49.882;8.664;2024-01-16T15:14:03;3.50;62.10
13086;DHT22;6609;49.882;8.664;2024-01-16T15:16:30;3.40;61.90
13086;DHT22;6609;49.882;8.664;2024-01-16T15:18:56;3.40;61.40
13086;DHT22;6609;49.882;8.664;2024-01-16T15:21:23;3.40;62.00
13086;DHT22;6609;49.882;8.664;2024-01-16T15:23:50;3.40;62.00
13086;DHT22;6609;49.882;8.664;2024-01-16T15:26:16;3.30;62.00
13086;DHT22;6609;49.882;8.664;2024-01-16T15:28:45;3.20;62.30
13086;DHT22;6609;49.882;8.664;2024-01-16T15:31:13;3.20;62.40
13086;DHT22;6609;49.882;8.664;2024-01-16T15:33:40;3.20;62.50
13086;DHT22;6609;49.882;8.664;2024-01-16T15:36:06;3.20;62.70
13086;DHT22;6609;49.882;8.664;2024-01-16T15:38:33;3.10;62.50
13086;DHT22;6609;49.882;8.664;2024-01-16T15:41:00;3.30;62.70
13086;DHT22;6609;49.882;8.664;2024-01-16T15:43:26;3.10;62.20
13086;DHT22;6609;49.882;8.664;2024-01-16T15:45:53;3.10;61.90
13086;DHT22;6609;49.882;8.664;2024-01-16T15:48:20;3.00;61.90
13086;DHT22;6609;49.882;8.664;2024-01-16T15:50:47;3.00;62.10
13086;DHT22;6609;49.882;8.664;2024-01-16T15:53:13;3.00;62.20
13086;DHT22;6609;49.882;8.664;2024-01-16T15:55:40;3.00;62.30
13086;DHT22;6609;49.882;8.664;2024-01-16T15:58:07;2.90;62.20
13086;DHT22;6609;49.882;8.664;2024-01-16T16:00:33;2.80;62.20
13086;DHT22;6609;49.882;8.664;2024-01-16T16:03:00;2.70;62.50
13086;DHT22;6609;49.882;8.664;2024-01-16T16:05:28;2.70;62.50
13086;DHT22;6609;49.882;8.664;2024-01-16T16:07:54;2.70;63.00
13086;DHT22;6609;49.882;8.664;2024-01-16T16:10:21;2.60;63.00
13086;DHT22;6609;49.882;8.664;2024-01-16T16:12:48;2.50;63.40